sensor_id;sensor_type;location;lat;lon;timestamp;P1;durP1;ratioP1;P2;durP2;ratioP2
36221;SDS011;22266;52.340;4.962;2023-02-12T00:00:49;16.00;;;11.50;;
36221;SDS011;22266;52.340;4.962;2023-02-12T00:03:17;11.00;;;11.00;;
36221;SDS011;22266;52.340;4.962;2023-02-12T00:05:43;15.25;;;14.00;;
36221;SDS011;22266;52.340;4.962;2023-02-12T00:08:10;11.75;;;11.75;;
36221;SDS011;22266;52.340;4.962;2023-02-12T00:10:40;12.00;;;10.75;;
36221;SDS011;22266;52.340;4.962;2023-02-12T00:13:08;12.00;;;10.25;;
36221;SDS011;22266;52.340;4.962;2023-02-12T00:15:39;11.75;;;11.50;;
36221;SDS011;22266;52.340;4.962;2023-02-12T00:18:07;16.00;;;15.75;;
36221;SDS011;22266;52.340;4.962;2023-02-12T00:20:33;18.25;;;14.00;;
36221;SDS011;22266;52.340;4.962;2023-02-12T00:23:01;18.50;;;16.50;;
36221;SDS011;22266;52.340;4.962;2023-02-12T00:25:28;18.75;;;13.25;;
36221;SDS011;22266;52.340;4.962;2023-02-12T00:27:54;18.00;;;13.50;;
36221;SDS011;22266;52.340;4.962;2023-02-12T00:30:20;18.50;;;17.75;;
36221;SDS011;22266;52.340;4.962;2023-02-12T00:32:47;17.00;;;15.75;;
36221;SDS011;22266;52.340;4.962;2023-02-12T00:35:14;22.25;;;15.25;;
36221;SDS011;22266;52.340;4.962;2023-02-12T00:37:41;17.50;;;15.75;;
36221;SDS011;22266;52.340;4.962;2023-02-12T00:40:08;17.00;;;14.50;;
36221;SDS011;22266;52.340;4.962;2023-02-12T00:42:36;14.75;;;13.00;;
36221;SDS011;22266;52.340;4.962;2023-02-12T00:45:03;19.75;;;15.75;;
36221;SDS011;22266;52.340;4.962;2023-02-12T00:47:29;18.00;;;12.25;;
36221;SDS011;22266;52.340;4.962;2023-02-12T00:49:56;16.75;;;12.75;;
36221;SDS011;22266;52.340;4.962;2023-02-12T00:52:22;14.00;;;13.00;;
36221;SDS011;22266;52.340;4.962;2023-02-12T00:54:49;14.25;;;13.25;;
36221;SDS011;22266;52.340;4.962;2023-02-12T00:57:15;19.50;;;18.25;;
36221;SDS011;22266;52.340;4.962;2023-02-12T00:59:41;20.50;;;15.25;;
36221;SDS011;22266;52.340;4.962;2023-02-12T01:02:08;15.25;;;12.25;;
36221;SDS011;22266;52.340;4.962;2023-02-12T01:04:34;13.50;;;13.50;;
36221;SDS011;22266;52.340;4.962;2023-02-12T01:07:01;14.75;;;13.00;;
36221;SDS011;22266;52.340;4.962;2023-02-12T01:09:27;15.25;;;15.25;;
36221;SDS011;22266;52.340;4.962;2023-02-12T01:11:54;13.00;;;11.00;;
36221;SDS011;22266;52.340;4.962;2023-02-12T01:14:20;10.00;;;10.00;;
36221;SDS011;22266;52.340;4.962;2023-02-12T01:16:47;14.75;;;14.00;;
36221;SDS011;22266;52.340;4.962;2023-02-12T01:19:13;18.75;;;14.75;;
36221;SDS011;22266;52.340;4.962;2023-02-12T01:21:41;14.50;;;13.00;;
36221;SDS011;22266;52.340;4.962;2023-02-12T01:24:08;12.00;;;11.00;;
36221;SDS011;22266;52.340;4.962;2023-02-12T01:26:35;12.75;;;12.75;;
36221;SDS011;22266;52.340;4.962;2023-02-12T01:29:02;17.75;;;15.75;;
36221;SDS011;22266;52.340;4.962;2023-02-12T01:31:32;18.00;;;14.00;;
36221;SDS011;22266;52.340;4.962;2023-02-12T01:34:02;19.00;;;15.00;;
36221;SDS011;22266;52.340;4.962;2023-02-12T01:36:31;20.00;;;19.25;;
36221;SDS011;22266;52.340;4.962;2023-02-12T01:38:58;19.00;;;14.00;;
36221;SDS011;22266;52.340;4.962;2023-02-12T01:41:29;19.75;;;15.25;;
36221;SDS011;22266;52.340;4.962;2023-02-12T01:44:18;19.25;;;15.50;;
36221;SDS011;22266;52.340;4.962;2023-02-12T01:46:53;18.25;;;11.50;;
36221;SDS011;22266;52.340;4.962;2023-02-12T01:49:27;15.25;;;14.50;;
36221;SDS011;22266;52.340;4.962;2023-02-12T01:54:35;24.50;;;18.00;;
36221;SDS011;22266;52.340;4.962;2023-02-12T01:57:03;15.25;;;15.25;;
36221;SDS011;22266;52.340;4.962;2023-02-12T01:59:31;13.50;;;13.50;;
36221;SDS011;22266;52.340;4.962;2023-02-12T02:01:59;17.75;;;15.25;;
36221;SDS011;22266;52.340;4.962;2023-02-12T02:04:26;15.25;;;15.00;;
36221;SDS011;22266;52.340;4.962;2023-02-12T02:06:58;17.25;;;16.00;;
36221;SDS011;22266;52.340;4.962;2023-02-12T02:09:26;12.25;;;11.00;;
36221;SDS011;22266;52.340;4.962;2023-02-12T02:11:54;15.75;;;15.75;;
36221;SDS011;22266;52.340;4.962;2023-02-12T02:14:40;16.00;;;16.00;;
36221;SDS011;22266;52.340;4.962;2023-02-12T02:17:19;18.75;;;16.00;;
36221;SDS011;22266;52.340;4.962;2023-02-12T02:22:53;19.75;;;18.25;;
36221;SDS011;22266;52.340;4.962;2023-02-12T02:31:38;20.50;;;15.50;;
36221;SDS011;22266;52.340;4.962;2023-02-12T02:34:20;18.25;;;15.00;;
36221;SDS011;22266;52.340;4.962;2023-02-12T02:36:56;18.00;;;14.50;;
36221;SDS011;22266;52.340;4.962;2023-02-12T02:45:15;19.50;;;15.50;;
36221;SDS011;22266;52.340;4.962;2023-02-12T02:48:03;18.00;;;15.75;;
36221;SDS011;22266;52.340;4.962;2023-02-12T02:50:35;15.25;;;15.25;;
36221;SDS011;22266;52.340;4.962;2023-02-12T02:53:12;16.75;;;13.00;;
36221;SDS011;22266;52.340;4.962;2023-02-12T02:55:51;21.25;;;18.50;;
36221;SDS011;22266;52.340;4.962;2023-02-12T02:58:25;19.50;;;17.00;;
36221;SDS011;22266;52.340;4.962;2023-02-12T03:01:15;24.00;;;15.75;;
36221;SDS011;22266;52.340;4.962;2023-02-12T03:03:55;16.25;;;16.00;;
36221;SDS011;22266;52.340;4.962;2023-02-12T03:09:08;18.25;;;15.50;;
36221;SDS011;22266;52.340;4.962;2023-02-12T03:11:42;18.50;;;16.00;;
36221;SDS011;22266;52.340;4.962;2023-02-12T03:16:43;12.00;;;12.00;;
36221;SDS011;22266;52.340;4.962;2023-02-12T03:19:21;16.75;;;15.00;;
36221;SDS011;22266;52.340;4.962;2023-02-12T03:22:00;16.75;;;12.75;;
36221;SDS011;22266;52.340;4.962;2023-02-12T03:27:08;20.75;;;16.75;;
36221;SDS011;22266;52.340;4.962;2023-02-12T03:29:40;21.75;;;15.00;;
36221;SDS011;22266;52.340;4.962;2023-02-12T03:35:01;14.50;;;14.50;;
36221;SDS011;22266;52.340;4.962;2023-02-12T03:37:33;23.25;;;18.75;;
36221;SDS011;22266;52.340;4.962;2023-02-12T03:40:19;20.00;;;16.50;;
36221;SDS011;22266;52.340;4.962;2023-02-12T03:43:06;25.50;;;16.00;;
36221;SDS011;22266;52.340;4.962;2023-02-12T03:46:00;24.25;;;18.50;;
36221;SDS011;22266;52.340;4.962;2023-02-12T03:51:33;19.75;;;17.75;;
36221;SDS011;22266;52.340;4.962;2023-02-12T03:54:06;20.00;;;20.00;;
36221;SDS011;22266;52.340;4.962;2023-02-12T03:56:39;20.25;;;18.00;;
36221;SDS011;22266;52.340;4.962;2023-02-12T03:59:18;21.00;;;18.00;;
36221;SDS011;22266;52.340;4.962;2023-02-12T04:01:46;22.00;;;17.75;;
36221;SDS011;22266;52.340;4.962;2023-02-12T04:04:14;21.50;;;20.25;;
36221;SDS011;22266;52.340;4.962;2023-02-12T04:06:42;21.25;;;17.00;;
36221;SDS011;22266;52.340;4.962;2023-02-12T04:09:10;23.50;;;18.75;;
36221;SDS011;22266;52.340;4.962;2023-02-12T04:14:35;18.25;;;16.00;;
36221;SDS011;22266;52.340;4.962;2023-02-12T04:20:04;19.00;;;18.50;;
36221;SDS011;22266;52.340;4.962;2023-02-12T04:22:53;18.50;;;16.25;;
36221;SDS011;22266;52.340;4.962;2023-02-12T04:25:21;21.00;;;19.50;;
36221;SDS011;22266;52.340;4.962;2023-02-12T04:31:19;20.25;;;16.00;;
36221;SDS011;22266;52.340;4.962;2023-02-12T04:33:59;14.25;;;14.25;;
36221;SDS011;22266;52.340;4.962;2023-02-12T04:36:36;17.00;;;15.50;;
36221;SDS011;22266;52.340;4.962;2023-02-12T04:39:09;17.50;;;13.75;;
36221;SDS011;22266;52.340;4.962;2023-02-12T04:41:41;20.75;;;17.00;;
36221;SDS011;22266;52.340;4.962;2023-02-12T04:44:17;26.50;;;20.00;;
36221;SDS011;22266;52.340;4.962;2023-02-12T04:46:48;21.75;;;18.25;;
36221;SDS011;22266;52.340;4.962;2023-02-12T04:49:16;18.75;;;14.50;;
36221;SDS011;22266;52.340;4.962;2023-02-12T04:51:45;20.50;;;19.75;;
36221;SDS011;22266;52.340;4.962;2023-02-12T04:54:12;17.50;;;14.75;;
36221;SDS011;22266;52.340;4.962;2023-02-12T04:56:39;26.25;;;23.75;;
36221;SDS011;22266;52.340;4.962;2023-02-12T04:59:06;26.50;;;19.25;;
36221;SDS011;22266;52.340;4.962;2023-02-12T05:01:35;22.00;;;19.00;;
36221;SDS011;22266;52.340;4.962;2023-02-12T05:04:03;15.50;;;14.75;;
36221;SDS011;22266;52.340;4.962;2023-02-12T05:06:30;16.50;;;15.75;;
36221;SDS011;22266;52.340;4.962;2023-02-12T05:09:01;19.50;;;18.00;;
36221;SDS011;22266;52.340;4.962;2023-02-12T05:11:27;17.50;;;16.50;;
36221;SDS011;22266;52.340;4.962;2023-02-12T05:13:54;21.50;;;17.25;;
36221;SDS011;22266;52.340;4.962;2023-02-12T05:16:20;18.75;;;18.00;;
36221;SDS011;22266;52.340;4.962;2023-02-12T05:18:47;18.00;;;16.25;;
36221;SDS011;22266;52.340;4.962;2023-02-12T05:21:14;19.50;;;16.50;;
36221;SDS011;22266;52.340;4.962;2023-02-12T05:23:41;17.50;;;17.00;;
36221;SDS011;22266;52.340;4.962;2023-02-12T05:26:12;19.00;;;16.50;;
36221;SDS011;22266;52.340;4.962;2023-02-12T05:28:40;20.75;;;17.00;;
36221;SDS011;22266;52.340;4.962;2023-02-12T05:31:07;21.00;;;18.00;;
36221;SDS011;22266;52.340;4.962;2023-02-12T05:33:36;17.75;;;13.25;;
36221;SDS011;22266;52.340;4.962;2023-02-12T05:36:07;19.50;;;19.50;;
36221;SDS011;22266;52.340;4.962;2023-02-12T05:38:35;17.50;;;16.00;;
36221;SDS011;22266;52.340;4.962;2023-02-12T05:41:06;17.75;;;14.25;;
36221;SDS011;22266;52.340;4.962;2023-02-12T05:43:37;19.00;;;17.00;;
36221;SDS011;22266;52.340;4.962;2023-02-12T05:46:04;21.75;;;19.00;;
36221;SDS011;22266;52.340;4.962;2023-02-12T05:48:31;19.75;;;15.75;;
36221;SDS011;22266;52.340;4.962;2023-02-12T05:51:02;14.00;;;14.00;;
36221;SDS011;22266;52.340;4.962;2023-02-12T05:53:35;14.25;;;14.25;;
36221;SDS011;22266;52.340;4.962;2023-02-12T05:56:22;19.25;;;16.00;;
36221;SDS011;22266;52.340;4.962;2023-02-12T05:58:51;20.75;;;16.75;;
36221;SDS011;22266;52.340;4.962;2023-02-12T06:01:21;17.75;;;16.75;;
36221;SDS011;22266;52.340;4.962;2023-02-12T06:03:50;19.75;;;17.00;;
36221;SDS011;22266;52.340;4.962;2023-02-12T06:06:16;19.50;;;17.50;;
36221;SDS011;22266;52.340;4.962;2023-02-12T06:08:43;13.50;;;13.50;;
36221;SDS011;22266;52.340;4.962;2023-02-12T06:11:14;20.00;;;17.00;;
36221;SDS011;22266;52.340;4.962;2023-02-12T06:13:41;14.75;;;14.25;;
36221;SDS011;22266;52.340;4.962;2023-02-12T06:16:15;21.75;;;16.50;;
36221;SDS011;22266;52.340;4.962;2023-02-12T06:18:47;12.00;;;11.75;;
36221;SDS011;22266;52.340;4.962;2023-02-12T06:21:15;15.25;;;11.50;;
36221;SDS011;22266;52.340;4.962;2023-02-12T06:23:42;19.50;;;16.00;;
36221;SDS011;22266;52.340;4.962;2023-02-12T06:26:09;15.25;;;14.00;;
36221;SDS011;22266;52.340;4.962;2023-02-12T06:28:36;19.50;;;14.25;;
36221;SDS011;22266;52.340;4.962;2023-02-12T06:31:02;16.75;;;15.00;;
36221;SDS011;22266;52.340;4.962;2023-02-12T06:33:29;21.00;;;18.00;;
36221;SDS011;22266;52.340;4.962;2023-02-12T06:35:56;15.00;;;13.75;;
36221;SDS011;22266;52.340;4.962;2023-02-12T06:38:23;19.50;;;16.25;;
36221;SDS011;22266;52.340;4.962;2023-02-12T06:40:49;16.75;;;12.25;;
36221;SDS011;22266;52.340;4.962;2023-02-12T06:43:16;17.00;;;14.50;;
36221;SDS011;22266;52.340;4.962;2023-02-12T06:45:42;17.50;;;13.25;;
36221;SDS011;22266;52.340;4.962;2023-02-12T06:48:08;23.50;;;18.25;;
36221;SDS011;22266;52.340;4.962;2023-02-12T06:50:35;19.00;;;14.75;;
36221;SDS011;22266;52.340;4.962;2023-02-12T06:53:02;16.25;;;15.00;;
36221;SDS011;22266;52.340;4.962;2023-02-12T06:55:28;16.00;;;14.75;;
36221;SDS011;22266;52.340;4.962;2023-02-12T06:57:55;16.00;;;14.00;;
36221;SDS011;22266;52.340;4.962;2023-02-12T07:00:21;16.25;;;13.50;;
36221;SDS011;22266;52.340;4.962;2023-02-12T07:02:55;16.75;;;12.00;;
36221;SDS011;22266;52.340;4.962;2023-02-12T07:05:22;12.75;;;12.75;;
36221;SDS011;22266;52.340;4.962;2023-02-12T07:07:49;13.25;;;12.50;;
36221;SDS011;22266;52.340;4.962;2023-02-12T07:10:16;13.50;;;12.50;;
36221;SDS011;22266;52.340;4.962;2023-02-12T07:12:43;14.00;;;12.25;;
36221;SDS011;22266;52.340;4.962;2023-02-12T07:15:10;14.50;;;14.00;;
36221;SDS011;22266;52.340;4.962;2023-02-12T07:17:37;17.50;;;14.00;;
36221;SDS011;22266;52.340;4.962;2023-02-12T07:20:04;19.00;;;15.00;;
36221;SDS011;22266;52.340;4.962;2023-02-12T07:22:31;16.75;;;15.00;;
36221;SDS011;22266;52.340;4.962;2023-02-12T07:25:01;15.00;;;12.75;;
36221;SDS011;22266;52.340;4.962;2023-02-12T07:27:27;18.00;;;15.00;;
36221;SDS011;22266;52.340;4.962;2023-02-12T07:29:54;18.25;;;14.50;;
36221;SDS011;22266;52.340;4.962;2023-02-12T07:32:20;11.50;;;9.50;;
36221;SDS011;22266;52.340;4.962;2023-02-12T07:34:47;16.00;;;15.50;;
36221;SDS011;22266;52.340;4.962;2023-02-12T07:37:13;12.75;;;11.00;;
36221;SDS011;22266;52.340;4.962;2023-02-12T07:39:39;13.50;;;12.50;;
36221;SDS011;22266;52.340;4.962;2023-02-12T07:42:06;16.25;;;13.75;;
36221;SDS011;22266;52.340;4.962;2023-02-12T07:44:33;24.50;;;18.00;;
36221;SDS011;22266;52.340;4.962;2023-02-12T07:47:00;22.50;;;19.50;;
36221;SDS011;22266;52.340;4.962;2023-02-12T07:49:27;19.50;;;16.75;;
36221;SDS011;22266;52.340;4.962;2023-02-12T07:51:54;13.25;;;12.25;;
36221;SDS011;22266;52.340;4.962;2023-02-12T07:54:21;15.75;;;15.75;;
36221;SDS011;22266;52.340;4.962;2023-02-12T07:56:48;23.75;;;21.25;;
36221;SDS011;22266;52.340;4.962;2023-02-12T07:59:16;27.25;;;27.25;;
36221;SDS011;22266;52.340;4.962;2023-02-12T08:01:45;30.75;;;27.00;;
36221;SDS011;22266;52.340;4.962;2023-02-12T08:04:14;25.00;;;22.25;;
36221;SDS011;22266;52.340;4.962;2023-02-12T08:06:45;29.50;;;27.25;;
36221;SDS011;22266;52.340;4.962;2023-02-12T08:09:19;15.50;;;14.00;;
36221;SDS011;22266;52.340;4.962;2023-02-12T08:11:47;20.00;;;17.00;;
36221;SDS011;22266;52.340;4.962;2023-02-12T08:14:15;19.25;;;17.50;;
36221;SDS011;22266;52.340;4.962;2023-02-12T08:16:44;19.50;;;16.25;;
36221;SDS011;22266;52.340;4.962;2023-02-12T08:19:11;18.50;;;15.00;;
36221;SDS011;22266;52.340;4.962;2023-02-12T08:21:50;21.25;;;19.00;;
36221;SDS011;22266;52.340;4.962;2023-02-12T08:24:18;23.75;;;20.50;;
36221;SDS011;22266;52.340;4.962;2023-02-12T08:26:47;27.25;;;23.75;;
36221;SDS011;22266;52.340;4.962;2023-02-12T08:29:14;20.00;;;19.75;;
36221;SDS011;22266;52.340;4.962;2023-02-12T08:31:44;21.75;;;19.00;;
36221;SDS011;22266;52.340;4.962;2023-02-12T08:34:18;12.00;;;12.00;;
36221;SDS011;22266;52.340;4.962;2023-02-12T08:36:47;19.75;;;15.75;;
36221;SDS011;22266;52.340;4.962;2023-02-12T08:39:15;10.25;;;9.25;;
36221;SDS011;22266;52.340;4.962;2023-02-12T08:41:43;13.75;;;10.25;;
36221;SDS011;22266;52.340;4.962;2023-02-12T08:44:10;12.75;;;12.75;;
36221;SDS011;22266;52.340;4.962;2023-02-12T08:46:38;11.25;;;11.25;;
36221;SDS011;22266;52.340;4.962;2023-02-12T08:49:12;16.50;;;13.75;;
36221;SDS011;22266;52.340;4.962;2023-02-12T08:51:41;13.00;;;11.00;;
36221;SDS011;22266;52.340;4.962;2023-02-12T08:54:11;13.00;;;10.00;;
36221;SDS011;22266;52.340;4.962;2023-02-12T08:56:40;7.75;;;5.50;;
36221;SDS011;22266;52.340;4.962;2023-02-12T08:59:07;9.00;;;9.00;;
36221;SDS011;22266;52.340;4.962;2023-02-12T09:01:35;6.00;;;5.75;;
36221;SDS011;22266;52.340;4.962;2023-02-12T09:04:13;12.25;;;9.00;;
36221;SDS011;22266;52.340;4.962;2023-02-12T09:06:43;9.50;;;9.00;;
36221;SDS011;22266;52.340;4.962;2023-02-12T09:09:11;15.00;;;11.75;;
36221;SDS011;22266;52.340;4.962;2023-02-12T09:11:37;10.00;;;9.25;;
36221;SDS011;22266;52.340;4.962;2023-02-12T09:14:05;11.00;;;8.50;;
36221;SDS011;22266;52.340;4.962;2023-02-12T09:16:33;9.00;;;7.50;;
36221;SDS011;22266;52.340;4.962;2023-02-12T09:19:01;9.75;;;9.75;;
36221;SDS011;22266;52.340;4.962;2023-02-12T09:21:28;9.00;;;8.00;;
36221;SDS011;22266;52.340;4.962;2023-02-12T09:23:55;10.75;;;10.25;;
36221;SDS011;22266;52.340;4.962;2023-02-12T09:26:22;7.00;;;7.00;;
36221;SDS011;22266;52.340;4.962;2023-02-12T09:28:51;8.75;;;8.75;;
36221;SDS011;22266;52.340;4.962;2023-02-12T09:31:23;8.50;;;7.50;;
36221;SDS011;22266;52.340;4.962;2023-02-12T09:33:53;11.00;;;9.25;;
36221;SDS011;22266;52.340;4.962;2023-02-12T09:36:24;14.00;;;10.50;;
36221;SDS011;22266;52.340;4.962;2023-02-12T09:38:51;12.00;;;12.00;;
36221;SDS011;22266;52.340;4.962;2023-02-12T09:43:55;15.75;;;13.00;;
36221;SDS011;22266;52.340;4.962;2023-02-12T09:52:03;12.25;;;12.00;;
36221;SDS011;22266;52.340;4.962;2023-02-12T09:54:33;10.75;;;9.75;;
36221;SDS011;22266;52.340;4.962;2023-02-12T09:57:04;10.25;;;7.75;;
36221;SDS011;22266;52.340;4.962;2023-02-12T09:59:50;11.25;;;9.50;;
36221;SDS011;22266;52.340;4.962;2023-02-12T10:02:21;9.25;;;7.50;;
36221;SDS011;22266;52.340;4.962;2023-02-12T10:04:51;9.50;;;8.00;;
36221;SDS011;22266;52.340;4.962;2023-02-12T10:12:50;6.75;;;6.25;;
36221;SDS011;22266;52.340;4.962;2023-02-12T10:15:26;10.00;;;6.00;;
36221;SDS011;22266;52.340;4.962;2023-02-12T10:18:04;6.50;;;6.50;;
36221;SDS011;22266;52.340;4.962;2023-02-12T10:26:32;8.00;;;7.00;;
36221;SDS011;22266;52.340;4.962;2023-02-12T10:29:16;5.00;;;5.00;;
36221;SDS011;22266;52.340;4.962;2023-02-12T10:31:48;7.00;;;6.00;;
36221;SDS011;22266;52.340;4.962;2023-02-12T10:34:22;11.75;;;9.25;;
36221;SDS011;22266;52.340;4.962;2023-02-12T10:36:52;8.50;;;8.25;;
36221;SDS011;22266;52.340;4.962;2023-02-12T10:39:32;6.00;;;5.75;;
36221;SDS011;22266;52.340;4.962;2023-02-12T10:42:18;7.25;;;6.25;;
36221;SDS011;22266;52.340;4.962;2023-02-12T10:44:51;5.75;;;4.50;;
36221;SDS011;22266;52.340;4.962;2023-02-12T10:47:18;8.25;;;8.25;;
36221;SDS011;22266;52.340;4.962;2023-02-12T10:49:52;6.00;;;6.00;;
36221;SDS011;22266;52.340;4.962;2023-02-12T10:55:33;4.50;;;4.25;;
36221;SDS011;22266;52.340;4.962;2023-02-12T10:58:00;9.25;;;9.25;;
36221;SDS011;22266;52.340;4.962;2023-02-12T11:00:33;10.75;;;9.25;;
36221;SDS011;22266;52.340;4.962;2023-02-12T11:05:41;9.50;;;9.50;;
36221;SDS011;22266;52.340;4.962;2023-02-12T11:11:04;11.50;;;10.25;;
36221;SDS011;22266;52.340;4.962;2023-02-12T11:13:34;11.00;;;8.75;;
36221;SDS011;22266;52.340;4.962;2023-02-12T11:16:02;9.00;;;7.75;;
36221;SDS011;22266;52.340;4.962;2023-02-12T11:18:29;8.75;;;7.25;;
36221;SDS011;22266;52.340;4.962;2023-02-12T11:21:03;11.00;;;9.25;;
36221;SDS011;22266;52.340;4.962;2023-02-12T11:23:33;12.50;;;10.25;;
36221;SDS011;22266;52.340;4.962;2023-02-12T11:28:52;5.00;;;5.00;;
36221;SDS011;22266;52.340;4.962;2023-02-12T11:31:20;10.00;;;6.50;;
36221;SDS011;22266;52.340;4.962;2023-02-12T11:34:06;10.00;;;10.00;;
36221;SDS011;22266;52.340;4.962;2023-02-12T11:36:45;10.75;;;9.25;;
36221;SDS011;22266;52.340;4.962;2023-02-12T11:39:18;10.50;;;9.75;;
36221;SDS011;22266;52.340;4.962;2023-02-12T11:41:52;10.25;;;10.25;;
36221;SDS011;22266;52.340;4.962;2023-02-12T11:44:23;11.50;;;10.25;;
36221;SDS011;22266;52.340;4.962;2023-02-12T11:46:56;9.25;;;9.25;;
36221;SDS011;22266;52.340;4.962;2023-02-12T11:49:28;14.00;;;11.50;;
36221;SDS011;22266;52.340;4.962;2023-02-12T11:51:59;12.50;;;11.75;;
36221;SDS011;22266;52.340;4.962;2023-02-12T11:54:29;12.50;;;11.00;;
36221;SDS011;22266;52.340;4.962;2023-02-12T11:57:04;20.25;;;15.25;;
36221;SDS011;22266;52.340;4.962;2023-02-12T11:59:32;15.75;;;13.25;;
36221;SDS011;22266;52.340;4.962;2023-02-12T12:02:08;16.00;;;14.75;;
36221;SDS011;22266;52.340;4.962;2023-02-12T12:04:48;15.25;;;12.00;;
36221;SDS011;22266;52.340;4.962;2023-02-12T12:07:19;15.25;;;14.25;;
36221;SDS011;22266;52.340;4.962;2023-02-12T12:09:54;11.50;;;10.00;;
36221;SDS011;22266;52.340;4.962;2023-02-12T12:12:31;13.25;;;13.25;;
36221;SDS011;22266;52.340;4.962;2023-02-12T12:15:14;17.00;;;15.75;;
36221;SDS011;22266;52.340;4.962;2023-02-12T12:18:25;15.00;;;15.00;;
36221;SDS011;22266;52.340;4.962;2023-02-12T12:21:35;17.00;;;13.00;;
36221;SDS011;22266;52.340;4.962;2023-02-12T12:24:08;14.25;;;13.00;;
36221;SDS011;22266;52.340;4.962;2023-02-12T12:26:43;14.75;;;13.50;;
36221;SDS011;22266;52.340;4.962;2023-02-12T12:29:26;16.25;;;12.00;;
36221;SDS011;22266;52.340;4.962;2023-02-12T12:32:08;14.00;;;13.00;;
36221;SDS011;22266;52.340;4.962;2023-02-12T12:34:39;13.75;;;13.25;;
36221;SDS011;22266;52.340;4.962;2023-02-12T12:40:31;12.25;;;11.75;;
36221;SDS011;22266;52.340;4.962;2023-02-12T12:48:20;16.25;;;15.50;;
36221;SDS011;22266;52.340;4.962;2023-02-12T12:51:03;20.50;;;15.75;;
36221;SDS011;22266;52.340;4.962;2023-02-12T12:53:49;15.25;;;12.00;;
36221;SDS011;22266;52.340;4.962;2023-02-12T13:07:40;14.50;;;11.50;;
36221;SDS011;22266;52.340;4.962;2023-02-12T13:13:19;11.75;;;11.75;;
36221;SDS011;22266;52.340;4.962;2023-02-12T13:16:01;11.25;;;9.00;;
36221;SDS011;22266;52.340;4.962;2023-02-12T13:18:48;14.75;;;14.50;;
36221;SDS011;22266;52.340;4.962;2023-02-12T13:27:14;13.00;;;12.50;;
36221;SDS011;22266;52.340;4.962;2023-02-12T13:29:47;9.25;;;9.25;;
36221;SDS011;22266;52.340;4.962;2023-02-12T13:32:22;8.75;;;8.50;;
36221;SDS011;22266;52.340;4.962;2023-02-12T13:34:53;8.00;;;8.00;;
36221;SDS011;22266;52.340;4.962;2023-02-12T13:39:54;11.25;;;8.25;;
36221;SDS011;22266;52.340;4.962;2023-02-12T13:45:24;8.75;;;8.00;;
36221;SDS011;22266;52.340;4.962;2023-02-12T13:50:44;9.00;;;7.50;;
36221;SDS011;22266;52.340;4.962;2023-02-12T13:53:29;17.00;;;11.75;;
36221;SDS011;22266;52.340;4.962;2023-02-12T13:56:23;13.50;;;9.75;;
36221;SDS011;22266;52.340;4.962;2023-02-12T13:58:59;8.00;;;8.00;;
36221;SDS011;22266;52.340;4.962;2023-02-12T14:04:13;6.50;;;6.50;;
36221;SDS011;22266;52.340;4.962;2023-02-12T14:06:59;11.50;;;9.00;;
36221;SDS011;22266;52.340;4.962;2023-02-12T14:24:58;11.75;;;10.00;;
36221;SDS011;22266;52.340;4.962;2023-02-12T14:30:01;13.00;;;12.00;;
36221;SDS011;22266;52.340;4.962;2023-02-12T14:35:34;12.00;;;12.00;;
36221;SDS011;22266;52.340;4.962;2023-02-12T14:40:46;7.00;;;3.50;;
36221;SDS011;22266;52.340;4.962;2023-02-12T14:54:02;19.50;;;15.50;;
36221;SDS011;22266;52.340;4.962;2023-02-12T14:56:32;18.00;;;17.25;;
36221;SDS011;22266;52.340;4.962;2023-02-12T14:59:13;42.00;;;35.75;;
36221;SDS011;22266;52.340;4.962;2023-02-12T15:01:45;35.75;;;32.25;;
36221;SDS011;22266;52.340;4.962;2023-02-12T15:04:16;23.75;;;21.00;;
36221;SDS011;22266;52.340;4.962;2023-02-12T15:06:59;22.50;;;18.75;;
36221;SDS011;22266;52.340;4.962;2023-02-12T15:09:46;18.50;;;18.25;;
36221;SDS011;22266;52.340;4.962;2023-02-12T15:12:19;17.50;;;15.25;;
36221;SDS011;22266;52.340;4.962;2023-02-12T15:15:10;13.50;;;12.25;;
36221;SDS011;22266;52.340;4.962;2023-02-12T15:17:46;15.25;;;12.50;;
36221;SDS011;22266;52.340;4.962;2023-02-12T15:20:22;14.00;;;11.50;;
36221;SDS011;22266;52.340;4.962;2023-02-12T15:22:56;15.50;;;11.50;;
36221;SDS011;22266;52.340;4.962;2023-02-12T15:25:27;14.50;;;14.00;;
36221;SDS011;22266;52.340;4.962;2023-02-12T15:27:59;12.25;;;10.50;;
36221;SDS011;22266;52.340;4.962;2023-02-12T15:30:29;12.25;;;9.00;;
36221;SDS011;22266;52.340;4.962;2023-02-12T15:33:00;8.25;;;8.25;;
36221;SDS011;22266;52.340;4.962;2023-02-12T15:35:31;17.25;;;13.25;;
36221;SDS011;22266;52.340;4.962;2023-02-12T15:38:00;11.00;;;9.75;;
36221;SDS011;22266;52.340;4.962;2023-02-12T15:40:27;15.00;;;12.25;;
36221;SDS011;22266;52.340;4.962;2023-02-12T15:42:59;15.50;;;12.00;;
36221;SDS011;22266;52.340;4.962;2023-02-12T15:45:28;15.00;;;13.25;;
36221;SDS011;22266;52.340;4.962;2023-02-12T15:53:23;13.50;;;12.50;;
36221;SDS011;22266;52.340;4.962;2023-02-12T15:55:53;18.75;;;14.50;;
36221;SDS011;22266;52.340;4.962;2023-02-12T15:58:24;18.50;;;14.75;;
36221;SDS011;22266;52.340;4.962;2023-02-12T16:00:52;15.75;;;13.00;;
36221;SDS011;22266;52.340;4.962;2023-02-12T16:03:20;12.50;;;10.25;;
36221;SDS011;22266;52.340;4.962;2023-02-12T16:05:49;15.00;;;12.75;;
36221;SDS011;22266;52.340;4.962;2023-02-12T16:08:17;16.00;;;16.00;;
36221;SDS011;22266;52.340;4.962;2023-02-12T16:10:47;18.75;;;11.25;;
36221;SDS011;22266;52.340;4.962;2023-02-12T16:13:28;16.75;;;16.25;;
36221;SDS011;22266;52.340;4.962;2023-02-12T16:18:37;18.25;;;14.75;;
36221;SDS011;22266;52.340;4.962;2023-02-12T16:21:05;16.00;;;14.50;;
36221;SDS011;22266;52.340;4.962;2023-02-12T16:23:44;16.75;;;14.50;;
36221;SDS011;22266;52.340;4.962;2023-02-12T16:26:33;20.25;;;17.75;;
36221;SDS011;22266;52.340;4.962;2023-02-12T16:28:58;17.75;;;15.25;;
36221;SDS011;22266;52.340;4.962;2023-02-12T16:31:25;17.75;;;16.00;;
36221;SDS011;22266;52.340;4.962;2023-02-12T16:33:53;13.00;;;13.00;;
36221;SDS011;22266;52.340;4.962;2023-02-12T16:38:50;10.00;;;9.25;;
36221;SDS011;22266;52.340;4.962;2023-02-12T16:41:28;21.75;;;14.00;;
36221;SDS011;22266;52.340;4.962;2023-02-12T16:46:46;16.00;;;14.00;;
36221;SDS011;22266;52.340;4.962;2023-02-12T16:49:14;13.25;;;13.25;;
36221;SDS011;22266;52.340;4.962;2023-02-12T16:51:42;11.75;;;11.75;;
36221;SDS011;22266;52.340;4.962;2023-02-12T16:54:29;12.25;;;12.25;;
36221;SDS011;22266;52.340;4.962;2023-02-12T16:56:57;11.00;;;7.50;;
36221;SDS011;22266;52.340;4.962;2023-02-12T16:59:26;14.50;;;13.75;;
36221;SDS011;22266;52.340;4.962;2023-02-12T17:02:00;13.00;;;11.50;;
36221;SDS011;22266;52.340;4.962;2023-02-12T17:04:28;17.25;;;16.25;;
36221;SDS011;22266;52.340;4.962;2023-02-12T17:06:55;19.25;;;15.75;;
36221;SDS011;22266;52.340;4.962;2023-02-12T17:09:23;28.00;;;23.75;;
36221;SDS011;22266;52.340;4.962;2023-02-12T17:11:49;18.75;;;14.00;;
36221;SDS011;22266;52.340;4.962;2023-02-12T17:14:16;19.25;;;17.50;;
36221;SDS011;22266;52.340;4.962;2023-02-12T17:16:45;20.75;;;17.50;;
36221;SDS011;22266;52.340;4.962;2023-02-12T17:19:11;21.75;;;19.00;;
36221;SDS011;22266;52.340;4.962;2023-02-12T17:21:39;20.00;;;18.25;;
36221;SDS011;22266;52.340;4.962;2023-02-12T17:24:24;18.25;;;17.50;;
36221;SDS011;22266;52.340;4.962;2023-02-12T17:26:52;13.50;;;13.50;;
36221;SDS011;22266;52.340;4.962;2023-02-12T17:29:20;14.75;;;11.75;;